Time;durP1;ratioP1;P1;durP2;ratioP2;P2;SDS_P1;SDS_P2;PMS_P1;PMS_P2;Temp;Humidity;BMP_temperature;BMP_pressure;BME280_temperature;BME280_humidity;BME280_pressure;Samples;Min_cycle;Max_cycle;Signal;HPM_P1;HPM_P2
2020/12/27 00:00:52;;;;;;;214.27;67.70;;;;;;;7.58;100.00;100629.66;5018530;28;20044;-71
2020/12/27 00:03:17;;;;;;;176.55;52.75;;;;;;;7.81;100.00;100642.78;5058715;28;20021;-69
2020/12/27 00:05:44;;;;;;;192.65;60.75;;;;;;;7.73;100.00;100620.13;5057967;28;20025;-69
2020/12/27 00:08:10;;;;;;;179.32;52.63;;;;;;;7.90;100.00;100646.72;5054063;28;20060;-72
2020/12/27 00:10:35;;;;;;;168.48;53.10;;;;;;;7.88;100.00;100635.47;5054075;28;20032;-71
2020/12/27 00:13:01;;;;;;;174.27;72.38;;;;;;;7.97;100.00;100655.59;5054570;28;20024;-68
2020/12/27 00:15:26;;;;;;;169.82;51.08;;;;;;;7.83;100.00;100636.03;5055400;28;20162;-70
2020/12/27 00:17:52;;;;;;;154.63;52.42;;;;;;;8.02;100.00;100654.13;5053188;28;20376;-72
2020/12/27 00:20:17;;;;;;;171.90;54.08;;;;;;;8.07;100.00;100663.00;5035081;28;20040;-70
2020/12/27 00:22:43;;;;;;;171.00;54.08;;;;;;;8.07;100.00;100660.41;5038435;28;20436;-69
2020/12/27 00:25:08;;;;;;;155.57;54.00;;;;;;;8.15;100.00;100659.91;5042723;28;20106;-75
2020/12/27 00:27:33;;;;;;;160.43;52.97;;;;;;;8.11;100.00;100674.28;5035557;28;20521;-72
2020/12/27 00:29:59;;;;;;;154.35;54.53;;;;;;;8.10;100.00;100664.84;5036240;28;20482;-73
2020/12/27 00:32:28;;;;;;;172.63;52.25;;;;;;;8.17;100.00;100684.88;5033587;28;20048;-71
2020/12/27 00:34:53;;;;;;;148.70;52.88;;;;;;;8.19;100.00;100678.13;5031511;28;20045;-71
2020/12/27 00:37:20;;;;;;;138.90;51.38;;;;;;;8.13;100.00;100667.53;5044573;28;20037;-71
2020/12/27 00:39:46;;;;;;;175.88;106.00;;;;;;;8.01;100.00;100634.41;5050604;28;20041;-66
2020/12/27 00:42:11;;;;;;;135.25;54.22;;;;;;;8.28;100.00;100671.69;5049596;28;20029;-69
2020/12/27 00:44:37;;;;;;;123.28;48.95;;;;;;;8.13;99.81;100654.69;5031634;28;20021;-70
2020/12/27 00:47:02;;;;;;;136.70;50.95;;;;;;;8.28;99.83;100681.97;5032665;28;20124;-66
2020/12/27 00:49:28;;;;;;;106.88;43.00;;;;;;;8.22;99.59;100674.84;5032560;28;20044;-67
2020/12/27 00:51:53;;;;;;;129.98;46.95;;;;;;;8.25;99.64;100685.28;5046831;28;20045;-67
2020/12/27 00:54:19;;;;;;;108.68;43.65;;;;;;;8.19;99.72;100677.25;5052844;28;20025;-69
2020/12/27 00:56:50;;;;;;;102.90;48.28;;;;;;;8.21;99.77;100688.50;5056446;28;20472;-71
2020/12/27 00:59:15;;;;;;;89.38;43.92;;;;;;;8.10;99.35;100672.53;5053104;28;20514;-69
2020/12/27 01:01:41;;;;;;;88.75;41.33;;;;;;;8.15;99.03;100688.19;5055255;28;20033;-68
2020/12/27 01:04:06;;;;;;;82.45;38.92;;;;;;;7.94;98.87;100663.16;5053003;28;20025;-67
2020/12/27 01:06:34;;;;;;;79.07;37.55;;;;;;;8.05;99.16;100695.44;5056275;28;20032;-69
2020/12/27 01:09:00;;;;;;;75.30;35.67;;;;;;;8.02;99.43;100700.41;5054055;28;20032;-70
2020/12/27 01:11:25;;;;;;;76.63;34.80;;;;;;;8.00;99.47;100698.56;5054363;28;20036;-69
2020/12/27 01:13:50;;;;;;;68.35;35.35;;;;;;;7.83;99.40;100675.47;5051836;28;20116;-69
2020/12/27 01:16:19;;;;;;;65.95;31.45;;;;;;;7.98;99.39;100701.06;5054581;28;20025;-68
2020/12/27 01:18:46;;;;;;;60.58;29.92;;;;;;;8.03;99.21;100706.47;5052387;28;20029;-71
2020/12/27 01:21:11;;;;;;;55.90;27.55;;;;;;;7.94;99.39;100697.47;5049797;28;20040;-70
2020/12/27 01:23:37;;;;;;;53.33;26.95;;;;;;;7.97;99.33;100699.31;5052445;28;20488;-69
2020/12/27 01:26:02;;;;;;;53.00;29.85;;;;;;;7.93;99.19;100689.69;5071178;28;20053;-72
2020/12/27 01:28:28;;;;;;;53.35;25.80;;;;;;;7.87;99.19;100687.66;5070908;28;20090;-72
2020/12/27 01:30:53;;;;;;;45.00;23.83;;;;;;;7.90;99.04;100694.66;5069844;28;20044;-68
2020/12/27 01:33:19;;;;;;;53.42;25.25;;;;;;;7.95;99.12;100693.22;5074887;28;20497;-70
2020/12/27 01:35:45;;;;;;;37.78;19.58;;;;;;;7.81;99.11;100674.50;5072656;28;20090;-71
2020/12/27 01:38:12;;;;;;;36.25;16.08;;;;;;;7.95;98.44;100685.50;5071310;28;20024;-72
2020/12/27 01:40:37;;;;;;;36.10;16.08;;;;;;;7.93;98.34;100684.53;5070872;28;20648;-72
2020/12/27 01:43:03;;;;;;;22.27;12.35;;;;;;;7.93;98.01;100674.25;5072022;28;20029;-72
2020/12/27 01:45:29;;;;;;;31.13;17.73;;;;;;;7.95;97.88;100680.38;5069844;28;20411;-72
2020/12/27 01:47:55;;;;;;;30.58;16.00;;;;;;;7.89;97.49;100690.34;5069812;28;20098;-71
2020/12/27 01:50:21;;;;;;;31.55;16.15;;;;;;;7.75;97.62;100690.50;5074674;28;20036;-70
2020/12/27 01:52:47;;;;;;;29.92;24.50;;;;;;;7.72;97.80;100666.31;5076237;28;20047;-67
2020/12/27 01:55:14;;;;;;;20.50;11.82;;;;;;;7.60;97.50;100674.25;5074586;28;20038;-72
2020/12/27 01:57:58;;;;;;;34.25;28.23;;;;;;;7.58;97.87;100681.91;5069079;28;20040;-70
2020/12/27 02:00:23;;;;;;;19.95;11.93;;;;;;;7.52;97.96;100689.28;5064994;28;20037;-70
2020/12/27 02:02:49;;;;;;;17.70;9.75;;;;;;;7.45;98.15;100684.63;5059256;28;20035;-71
2020/12/27 02:05:15;;;;;;;20.25;11.35;;;;;;;7.51;98.09;100679.81;5035212;28;20044;-70
2020/12/27 02:07:43;;;;;;;27.48;15.25;;;;;;;7.47;97.84;100688.16;5055888;28;20131;-70
2020/12/27 02:10:09;;;;;;;16.70;9.88;;;;;;;7.31;97.51;100658.22;5070545;28;20020;-69
2020/12/27 02:12:34;;;;;;;14.60;12.38;;;;;;;7.49;97.11;100677.97;5069574;28;20037;-68
2020/12/27 02:15:00;;;;;;;14.82;7.18;;;;;;;7.44;97.05;100691.47;5068000;28;20536;-69
2020/12/27 02:17:25;;;;;;;16.08;14.50;;;;;;;7.42;97.04;100687.91;5069758;28;20032;-65
2020/12/27 02:19:50;;;;;;;16.15;8.88;;;;;;;7.29;97.29;100677.81;5068090;28;20032;-68
2020/12/27 02:22:16;;;;;;;20.30;13.88;;;;;;;7.37;97.29;100667.94;5066656;28;20028;-69
2020/12/27 02:24:41;;;;;;;19.60;11.93;;;;;;;7.26;97.31;100651.94;5059981;28;20109;-69
2020/12/27 02:27:08;;;;;;;18.73;7.63;;;;;;;7.41;96.60;100699.00;5056274;28;20090;-72
2020/12/27 02:29:35;;;;;;;11.93;6.03;;;;;;;7.41;96.61;100709.28;5070739;28;20477;-68
2020/12/27 02:32:00;;;;;;;17.00;6.32;;;;;;;7.37;96.23;100698.75;5070864;28;20036;-66
2020/12/27 02:34:26;;;;;;;14.93;6.03;;;;;;;7.34;96.34;100681.50;5070756;28;20024;-69
2020/12/27 02:36:53;;;;;;;16.10;5.00;;;;;;;7.40;96.03;100691.19;5070950;28;20032;-69
2020/12/27 02:39:21;;;;;;;20.17;5.47;;;;;;;7.43;95.61;100687.13;5068714;28;20041;-72
2020/12/27 02:41:51;;;;;;;9.80;4.60;;;;;;;7.34;95.23;100684.06;5070944;28;20031;-69
2020/12/27 02:44:17;;;;;;;17.13;5.18;;;;;;;7.32;95.17;100695.94;5064890;28;20104;-67
2020/12/27 02:46:43;;;;;;;14.77;4.63;;;;;;;7.31;95.19;100706.13;5069822;28;20032;-69
2020/12/27 02:49:08;;;;;;;19.92;5.30;;;;;;;7.29;95.45;100721.47;5060085;28;20464;-70
2020/12/27 02:51:34;;;;;;;11.93;4.13;;;;;;;7.19;94.92;100725.22;5060992;28;20033;-70
2020/12/27 02:54:00;;;;;;;11.40;4.43;;;;;;;7.10;94.92;100719.56;5051409;28;20029;-69
2020/12/27 02:56:26;;;;;;;12.63;4.03;;;;;;;7.19;94.83;100730.34;5051798;28;20017;-67
2020/12/27 02:58:54;;;;;;;9.55;3.47;;;;;;;7.19;94.63;100725.22;5050174;28;20033;-71
2020/12/27 03:01:20;;;;;;;9.05;3.03;;;;;;;7.21;94.27;100730.44;5057264;28;20033;-71
2020/12/27 03:03:46;;;;;;;16.48;4.85;;;;;;;7.08;93.82;100711.78;5057990;28;20123;-70
2020/12/27 03:06:12;;;;;;;16.23;4.00;;;;;;;7.09;93.93;100723.81;5069517;28;20541;-70
2020/12/27 03:08:39;;;;;;;13.15;3.65;;;;;;;7.12;94.11;100731.69;5053183;28;20051;-69
2020/12/27 03:11:05;;;;;;;8.25;2.33;;;;;;;7.02;93.65;100710.56;5051535;28;20074;-70
2020/12/27 03:13:32;;;;;;;3.50;1.70;;;;;;;6.99;93.77;100720.66;5052126;28;20021;-69
2020/12/27 03:15:58;;;;;;;9.48;2.42;;;;;;;6.99;93.72;100731.81;5057907;28;20025;-69
2020/12/27 03:18:25;;;;;;;7.75;2.60;;;;;;;6.96;93.85;100737.63;5060740;28;20403;-66
2020/12/27 03:20:51;;;;;;;8.68;2.50;;;;;;;6.92;93.84;100733.16;5058761;28;20090;-67
2020/12/27 03:23:16;;;;;;;7.28;1.92;;;;;;;6.94;93.51;100743.50;5058021;28;20040;-69
2020/12/27 03:25:45;;;;;;;3.88;1.73;;;;;;;6.85;93.81;100715.63;5071603;28;20490;-69
2020/12/27 03:28:11;;;;;;;8.38;2.00;;;;;;;6.79;93.16;100703.34;5074170;28;20863;-69
2020/12/27 03:30:36;;;;;;;15.32;3.58;;;;;;;6.63;93.51;100698.19;5059947;28;20033;-75
2020/12/27 03:33:03;;;;;;;14.60;3.88;;;;;;;6.79;93.97;100726.44;5064394;28;20495;-71
2020/12/27 03:35:28;;;;;;;15.07;5.15;;;;;;;6.74;93.88;100727.88;5064357;28;20032;-69
2020/12/27 03:37:54;;;;;;;10.10;2.40;;;;;;;6.67;93.77;100720.63;5069668;28;20031;-71
2020/12/27 03:40:19;;;;;;;6.57;1.90;;;;;;;6.69;93.91;100724.19;5068886;28;20039;-69
2020/12/27 03:42:44;;;;;;;7.30;2.00;;;;;;;6.67;94.19;100727.41;5067582;28;20025;-70
2020/12/27 03:45:10;;;;;;;2.92;1.27;;;;;;;6.63;94.06;100719.56;5070004;28;20103;-67
2020/12/27 03:47:35;;;;;;;4.43;1.77;;;;;;;6.59;93.84;100720.19;5066136;28;20149;-70
2020/12/27 03:50:01;;;;;;;9.70;4.47;;;;;;;6.51;93.82;100692.34;5070153;28;20101;-66
2020/12/27 03:52:28;;;;;;;6.63;1.88;;;;;;;6.52;93.99;100718.06;5048205;28;20040;-69
2020/12/27 03:54:53;;;;;;;4.13;2.00;;;;;;;6.60;94.08;100728.75;5069475;28;20031;-67
2020/12/27 03:57:18;;;;;;;6.05;2.55;;;;;;;6.53;93.72;100712.16;5068862;28;20024;-66
2020/12/27 03:59:44;;;;;;;4.05;1.75;;;;;;;6.60;94.18;100718.50;5067162;28;20052;-69
2020/12/27 04:02:09;;;;;;;6.32;2.38;;;;;;;6.55;94.34;100715.66;5070069;28;20036;-68
2020/12/27 04:04:35;;;;;;;4.78;2.08;;;;;;;6.59;93.98;100716.72;5066147;28;20151;-67
2020/12/27 04:07:00;;;;;;;4.82;1.48;;;;;;;6.26;93.72;100679.00;5069686;28;20082;-69
2020/12/27 04:09:26;;;;;;;11.05;1.90;;;;;;;6.54;94.02;100726.75;5066820;28;20111;-63
2020/12/27 04:11:51;;;;;;;5.72;1.63;;;;;;;6.58;93.92;100743.16;5068724;28;20035;-69
2020/12/27 04:14:17;;;;;;;10.75;4.55;;;;;;;6.39;93.55;100707.91;5068902;28;20055;-66
2020/12/27 04:16:42;;;;;;;2.40;1.17;;;;;;;6.52;93.21;100733.47;5054619;28;20027;-69
2020/12/27 04:19:07;;;;;;;2.90;1.15;;;;;;;6.47;93.28;100729.75;5053343;28;20104;-69
2020/12/27 04:21:33;;;;;;;3.28;1.60;;;;;;;6.45;93.22;100728.78;5053648;28;20032;-68
2020/12/27 04:23:59;;;;;;;7.78;1.88;;;;;;;6.50;93.24;100736.75;5055915;28;20480;-68
2020/12/27 04:26:24;;;;;;;3.75;1.27;;;;;;;6.46;93.11;100745.94;5052451;28;20025;-70
2020/12/27 04:28:50;;;;;;;4.80;1.88;;;;;;;6.40;93.19;100731.06;5052361;28;20033;-70
2020/12/27 04:31:18;;;;;;;3.78;1.20;;;;;;;6.32;92.90;100730.63;5067701;28;20058;-69
2020/12/27 04:33:44;;;;;;;4.03;1.58;;;;;;;6.09;93.16;100703.66;5072543;28;20415;-68
2020/12/27 04:36:09;;;;;;;2.83;1.17;;;;;;;6.21;93.46;100739.38;5072423;28;20021;-69
2020/12/27 04:38:35;;;;;;;3.85;1.55;;;;;;;6.23;93.93;100737.78;5072509;28;20494;-69
2020/12/27 04:41:02;;;;;;;6.50;2.85;;;;;;;6.22;93.71;100735.13;5071965;28;20431;-69
2020/12/27 04:43:28;;;;;;;3.92;1.58;;;;;;;6.23;94.14;100748.03;5071701;28;20051;-67
2020/12/27 04:46:02;;;;;;;6.10;1.10;;;;;;;6.16;93.88;100743.34;5071666;28;20483;-69
2020/12/27 04:48:29;;;;;;;4.93;4.43;;;;;;;6.26;94.07;100758.47;5071980;28;20449;-72
2020/12/27 04:50:55;;;;;;;3.63;1.60;;;;;;;6.24;93.38;100749.81;5071949;28;20052;-70
2020/12/27 04:53:21;;;;;;;1.98;1.38;;;;;;;6.17;93.58;100733.97;5071494;28;20020;-70
2020/12/27 04:55:51;;;;;;;4.72;1.80;;;;;;;6.04;93.76;100715.28;5052898;28;20154;-71
2020/12/27 04:58:18;;;;;;;4.22;1.17;;;;;;;5.96;93.57;100708.81;5069681;28;20114;-68
2020/12/27 05:00:44;;;;;;;5.07;1.60;;;;;;;6.19;93.77;100750.34;5071051;28;20157;-70
2020/12/27 05:03:10;;;;;;;3.53;1.67;;;;;;;6.13;94.11;100746.63;5068589;28;20100;-71
2020/12/27 05:05:35;;;;;;;4.35;1.45;;;;;;;6.17;93.31;100740.00;5070669;28;20067;-69
2020/12/27 05:08:01;;;;;;;3.45;1.65;;;;;;;6.21;93.60;100756.44;5067652;28;20100;-71
2020/12/27 05:10:26;;;;;;;4.47;1.92;;;;;;;6.19;93.54;100760.59;5052112;28;20024;-70
2020/12/27 05:12:53;;;;;;;4.40;2.40;;;;;;;6.19;93.92;100758.03;5052075;28;20025;-70
2020/12/27 05:15:20;;;;;;;5.07;2.45;;;;;;;6.20;93.84;100768.34;5055354;28;20024;-68
2020/12/27 05:17:47;;;;;;;4.25;1.80;;;;;;;6.19;93.63;100756.31;5055416;28;20021;-69
2020/12/27 05:20:14;;;;;;;3.33;1.95;;;;;;;6.12;93.79;100762.78;5058064;28;20027;-69
2020/12/27 05:22:41;;;;;;;5.80;1.90;;;;;;;6.15;94.03;100762.06;5054676;28;20024;-65
2020/12/27 05:25:07;;;;;;;3.28;1.77;;;;;;;6.14;93.51;100760.31;5052820;28;20044;-69
2020/12/27 05:27:40;;;;;;;1.88;1.50;;;;;;;6.04;93.83;100760.56;5063250;28;20051;-69
2020/12/27 05:30:06;;;;;;;2.63;1.40;;;;;;;6.03;93.85;100763.91;5060694;28;20103;-69
2020/12/27 05:32:31;;;;;;;2.13;1.20;;;;;;;5.95;93.78;100764.28;5062471;28;20123;-64
2020/12/27 05:34:58;;;;;;;4.78;1.55;;;;;;;5.70;94.27;100707.25;5061529;28;20443;-66
2020/12/27 05:37:29;;;;;;;3.40;1.50;;;;;;;5.93;94.75;100749.63;5060112;28;20120;-67
2020/12/27 05:39:54;;;;;;;5.07;2.03;;;;;;;5.90;94.42;100750.31;5063678;28;20106;-68
2020/12/27 05:42:26;;;;;;;2.72;1.80;;;;;;;5.94;94.66;100756.53;5058989;28;20060;-68
2020/12/27 05:44:52;;;;;;;2.97;1.15;;;;;;;5.94;94.55;100739.50;5058855;28;20059;-65
2020/12/27 05:47:19;;;;;;;2.13;1.35;;;;;;;5.94;94.79;100765.13;5058588;28;20029;-63
2020/12/27 05:49:45;;;;;;;2.22;1.00;;;;;;;5.89;94.81;100756.22;5063267;28;20086;-66
2020/12/27 05:52:16;;;;;;;1.95;1.17;;;;;;;5.93;94.82;100747.97;5060847;28;20021;-71
2020/12/27 05:54:48;;;;;;;5.88;1.25;;;;;;;5.98;94.60;100750.78;5062355;28;20078;-71
2020/12/27 05:57:16;;;;;;;4.32;1.90;;;;;;;5.91;94.34;100736.72;5061175;28;20446;-68
2020/12/27 05:59:45;;;;;;;6.28;2.88;;;;;;;5.78;94.72;100727.44;5061789;28;20462;-69
2020/12/27 06:02:34;;;;;;;4.90;2.50;;;;;;;5.92;94.47;100750.41;5064162;28;20034;-67
2020/12/27 06:05:10;;;;;;;5.37;2.57;;;;;;;5.98;94.67;100741.47;5059692;28;20028;-70
2020/12/27 06:07:41;;;;;;;3.22;1.70;;;;;;;5.96;94.45;100755.81;5058950;28;20350;-69
2020/12/27 06:10:08;;;;;;;4.75;2.33;;;;;;;5.89;94.56;100776.72;5063281;28;20085;-69
2020/12/27 06:12:42;;;;;;;4.32;1.80;;;;;;;5.93;94.66;100762.44;5053766;28;20503;-69
2020/12/27 06:15:08;;;;;;;3.78;1.30;;;;;;;5.84;94.87;100778.13;5054088;28;20025;-68
2020/12/27 06:18:07;;;;;;;2.72;1.75;;;;;;;5.75;95.71;100764.78;5050111;28;20063;-66
2020/12/27 06:20:35;;;;;;;5.30;1.60;;;;;;;5.76;96.39;100769.13;5048186;28;20047;-68
2020/12/27 06:23:02;;;;;;;9.88;3.58;;;;;;;5.76;96.19;100762.31;5048106;28;20033;-67
2020/12/27 06:25:29;;;;;;;3.95;1.90;;;;;;;5.79;96.82;100759.91;5048525;28;20132;-64
2020/12/27 06:27:56;;;;;;;6.90;2.30;;;;;;;5.77;96.89;100765.75;5048887;28;20089;-68
2020/12/27 06:30:24;;;;;;;5.80;2.08;;;;;;;5.74;97.35;100745.94;5043424;28;20124;-69
2020/12/27 06:32:54;;;;;;;10.45;2.85;;;;;;;5.73;97.01;100753.53;5041114;28;20457;-65
2020/12/27 06:35:31;;;;;;;2.83;1.13;;;;;;;5.67;96.93;100723.34;5043069;28;20043;-67
2020/12/27 06:37:57;;;;;;;3.80;0.80;;;;;;;5.60;96.26;100755.34;5036209;28;20035;-68
2020/12/27 06:40:24;;;;;;;2.17;0.80;;;;;;;5.48;96.01;100741.78;5041799;28;20037;-65
2020/12/27 06:42:49;;;;;;;0.85;0.85;;;;;;;5.53;96.10;100754.88;5043111;28;20033;-70
2020/12/27 06:45:30;;;;;;;1.45;0.90;;;;;;;5.52;95.99;100754.00;5042428;28;20110;-72
2020/12/27 06:47:57;;;;;;;0.80;0.77;;;;;;;5.56;96.23;100776.44;5041302;28;20051;-69
2020/12/27 06:50:25;;;;;;;0.85;0.73;;;;;;;5.60;95.90;100778.41;5033789;28;20491;-71
2020/12/27 06:52:51;;;;;;;1.98;0.75;;;;;;;5.59;95.98;100791.13;5047780;28;20029;-70
2020/12/27 06:55:37;;;;;;;1.60;1.38;;;;;;;5.65;96.05;100792.38;5040080;28;20029;-70
2020/12/27 06:58:23;;;;;;;2.55;1.33;;;;;;;5.71;95.96;100788.41;5056184;28;20135;-70
2020/12/27 07:01:07;;;;;;;4.28;2.78;;;;;;;5.76;95.78;100784.50;5066998;28;20033;-74
2020/12/27 07:03:33;;;;;;;5.82;3.15;;;;;;;5.76;95.35;100787.06;5056804;28;20035;-71
2020/12/27 07:06:24;;;;;;;6.80;3.15;;;;;;;5.77;95.68;100775.97;5050753;28;20037;-71
2020/12/27 07:08:54;;;;;;;4.55;2.22;;;;;;;5.74;95.46;100775.81;5052276;28;20025;-70
2020/12/27 07:11:22;;;;;;;4.10;1.80;;;;;;;5.86;95.31;100791.94;5052173;28;20111;-71
2020/12/27 07:13:52;;;;;;;3.72;2.17;;;;;;;5.87;95.29;100788.59;5053749;28;20032;-71
2020/12/27 07:16:18;;;;;;;8.98;4.55;;;;;;;5.89;95.44;100781.00;5051555;28;20032;-68
2020/12/27 07:18:48;;;;;;;10.77;5.18;;;;;;;5.97;95.16;100780.66;5051686;28;20511;-71
2020/12/27 07:21:18;;;;;;;4.22;2.05;;;;;;;5.95;95.10;100791.63;5049101;28;20045;-71
2020/12/27 07:23:47;;;;;;;5.05;2.67;;;;;;;6.03;95.17;100804.91;5051909;28;20045;-71
2020/12/27 07:26:13;;;;;;;3.65;1.90;;;;;;;6.04;95.39;100786.19;5050195;28;20032;-70
2020/12/27 07:28:38;;;;;;;5.72;2.10;;;;;;;6.10;95.24;100782.31;5051442;28;20029;-70
2020/12/27 07:31:05;;;;;;;3.35;1.75;;;;;;;6.08;94.75;100773.66;5051855;28;20021;-70
2020/12/27 07:33:34;;;;;;;5.47;2.13;;;;;;;6.14;94.96;100794.53;5051367;28;20029;-72
2020/12/27 07:36:10;;;;;;;5.32;3.28;;;;;;;6.01;95.39;100752.66;5051444;28;20021;-70
2020/12/27 07:39:05;;;;;;;3.58;1.85;;;;;;;6.26;94.87;100783.22;5050964;28;20087;-68
2020/12/27 07:41:34;;;;;;;6.90;4.10;;;;;;;6.10;94.88;100758.38;5088909;28;20094;-68
2020/12/27 07:44:00;;;;;;;4.27;2.47;;;;;;;6.24;94.71;100783.16;5070476;28;20055;-70
2020/12/27 07:46:27;;;;;;;3.88;2.15;;;;;;;6.07;94.85;100756.50;5068693;28;20294;-64
2020/12/27 07:48:53;;;;;;;4.13;2.20;;;;;;;6.33;94.72;100795.63;5069521;28;20036;-68
2020/12/27 07:51:23;;;;;;;11.05;10.05;;;;;;;6.40;95.18;100804.56;5070646;28;20040;-68
2020/12/27 07:53:51;;;;;;;9.63;5.00;;;;;;;6.48;95.03;100806.78;5070730;28;20167;-68
2020/12/27 07:56:18;;;;;;;4.50;2.58;;;;;;;6.54;95.05;100803.72;5070642;28;20028;-64
2020/12/27 07:58:54;;;;;;;5.43;3.13;;;;;;;6.54;94.47;100801.16;5070539;28;20035;-67
2020/12/27 08:01:28;;;;;;;5.15;3.00;;;;;;;6.58;94.36;100805.66;5070662;28;20506;-71
2020/12/27 08:03:55;;;;;;;3.70;2.25;;;;;;;6.60;94.41;100816.00;5074015;28;20036;-64
2020/12/27 08:06:25;;;;;;;2.90;1.60;;;;;;;6.61;94.30;100808.38;5074216;28;20467;-68
2020/12/27 08:09:04;;;;;;;2.75;1.90;;;;;;;6.64;94.11;100808.56;5074234;28;20508;-68
2020/12/27 08:11:31;;;;;;;3.47;1.95;;;;;;;6.67;94.38;100809.53;5074363;28;20477;-67
2020/12/27 08:14:03;;;;;;;2.13;1.40;;;;;;;6.61;94.41;100807.50;5073886;28;20074;-66
2020/12/27 08:16:29;;;;;;;2.25;1.55;;;;;;;6.56;94.68;100786.69;5074358;28;20050;-64
2020/12/27 08:19:09;;;;;;;6.20;3.65;;;;;;;6.57;94.83;100774.78;5073793;28;20542;-71
2020/12/27 08:21:41;;;;;;;;;;;;;;;6.68;94.45;100809.63;5074100;28;20115;-64
2020/12/27 08:24:08;;;;;;;40.92;36.92;;;;;;;6.66;94.79;100806.09;5073785;28;19920;-65
2020/12/27 08:26:35;;;;;;;10.93;9.07;;;;;;;6.76;95.28;100810.94;5071635;28;20040;-67
2020/12/27 08:29:13;;;;;;;6.28;4.05;;;;;;;6.80;94.91;100806.88;5069819;28;20033;-68
2020/12/27 08:31:43;;;;;;;7.95;6.05;;;;;;;6.90;94.62;100806.63;5070669;28;20029;-69
2020/12/27 08:34:10;;;;;;;11.73;3.88;;;;;;;6.95;94.70;100804.31;5073607;28;20024;-67
2020/12/27 08:36:38;;;;;;;6.60;3.50;;;;;;;7.00;94.72;100799.44;5070891;28;20060;-67
2020/12/27 08:39:25;;;;;;;6.80;3.72;;;;;;;7.04;94.25;100796.25;5068176;28;20033;-71
2020/12/27 08:42:02;;;;;;;37.17;27.00;;;;;;;7.01;94.38;100796.94;5073382;28;20052;-65
2020/12/27 08:44:47;;;;;;;4.30;2.40;;;;;;;7.06;94.37;100782.69;5073468;28;20028;-70
2020/12/27 08:47:46;;;;;;;4.25;2.22;;;;;;;7.05;94.49;100791.22;5073427;28;20025;-69
2020/12/27 08:50:24;;;;;;;5.40;2.55;;;;;;;7.04;94.62;100786.88;5088091;28;20039;-67
2020/12/27 08:52:56;;;;;;;8.57;3.13;;;;;;;7.10;94.66;100776.03;5073384;28;20033;-67
2020/12/27 08:55:27;;;;;;;12.48;8.38;;;;;;;7.12;94.70;100779.59;5072852;28;20043;-68
2020/12/27 08:57:58;;;;;;;16.08;10.95;;;;;;;7.12;94.53;100779.59;5073025;28;20031;-71
2020/12/27 09:00:31;;;;;;;6.25;4.85;;;;;;;7.13;95.15;100778.81;5073060;28;20028;-67
2020/12/27 09:02:58;;;;;;;6.25;4.03;;;;;;;7.18;94.99;100777.38;5072944;28;20043;-71
2020/12/27 09:05:32;;;;;;;7.00;4.53;;;;;;;7.25;94.54;100770.88;5072572;28;20054;-64
2020/12/27 09:07:57;;;;;;;12.75;11.35;;;;;;;7.19;94.46;100761.16;5073013;28;20032;-64
2020/12/27 09:10:24;;;;;;;8.27;7.40;;;;;;;7.31;94.63;100768.66;5072899;28;20032;-64
2020/12/27 09:13:02;;;;;;;9.63;6.07;;;;;;;7.34;94.49;100752.50;5072492;28;20041;-67
2020/12/27 09:15:35;;;;;;;6.25;4.00;;;;;;;7.27;94.47;100752.19;5072671;28;20476;-64
2020/12/27 09:18:10;;;;;;;7.15;4.45;;;;;;;7.27;94.70;100754.75;5073065;28;20038;-67
2020/12/27 09:20:43;;;;;;;12.75;7.75;;;;;;;7.11;94.45;100721.34;5072824;28;20028;-69
2020/12/27 09:23:12;;;;;;;15.40;11.10;;;;;;;7.38;94.57;100747.63;5072812;28;20037;-64
2020/12/27 09:25:38;;;;;;;14.25;8.75;;;;;;;7.41;94.56;100739.22;5072230;28;20051;-65
2020/12/27 09:28:18;;;;;;;10.73;6.15;;;;;;;7.44;94.59;100727.41;5072729;28;20040;-65
2020/12/27 09:30:45;;;;;;;7.35;5.18;;;;;;;7.48;94.57;100720.75;5072103;28;20021;-70
2020/12/27 09:33:11;;;;;;;8.38;5.65;;;;;;;7.52;94.26;100702.13;5072531;28;20036;-72
2020/12/27 09:35:37;;;;;;;8.48;4.57;;;;;;;7.52;94.23;100707.28;5070468;28;20032;-65
2020/12/27 09:38:03;;;;;;;9.55;5.78;;;;;;;7.49;94.86;100707.13;5071128;28;20471;-68
2020/12/27 09:40:29;;;;;;;8.93;5.90;;;;;;;7.55;95.29;100698.84;5072531;28;20064;-68
2020/12/27 09:43:18;;;;;;;8.57;6.47;;;;;;;7.64;94.83;100701.91;5072326;28;20450;-68
2020/12/27 09:45:44;;;;;;;;;;;;;;;7.67;94.67;100690.91;5072788;28;20161;-68
2020/12/27 09:48:09;;;;;;;7.60;5.15;;;;;;;7.72;94.83;100682.63;5072064;28;20011;-65
2020/12/27 09:50:38;;;;;;;13.07;9.02;;;;;;;7.75;95.02;100679.31;5071832;28;20029;-71
2020/12/27 09:53:05;;;;;;;8.23;4.47;;;;;;;7.79;95.13;100670.97;5069747;28;20044;-66
2020/12/27 09:55:31;;;;;;;7.85;4.65;;;;;;;7.82;95.32;100672.81;5071523;28;20067;-68
2020/12/27 09:57:56;;;;;;;9.65;4.68;;;;;;;7.85;95.39;100666.16;5072123;28;20040;-69
2020/12/27 10:00:23;;;;;;;12.63;7.53;;;;;;;7.73;95.45;100627.84;5071637;28;20020;-69
2020/12/27 10:02:48;;;;;;;13.45;5.00;;;;;;;7.89;95.45;100644.94;5066487;28;20071;-70
2020/12/27 10:05:14;;;;;;;7.68;4.90;;;;;;;7.96;95.67;100652.97;5071663;28;20491;-67
2020/12/27 10:07:40;;;;;;;10.30;7.07;;;;;;;8.07;95.29;100663.00;5071738;28;20498;-71
2020/12/27 10:10:08;;;;;;;10.88;5.90;;;;;;;8.15;95.53;100667.59;5071477;28;20028;-71
2020/12/27 10:12:33;;;;;;;8.07;5.47;;;;;;;8.17;95.64;100664.31;5071811;28;20032;-68
2020/12/27 10:14:59;;;;;;;9.07;5.65;;;;;;;8.02;95.88;100609.56;5072167;28;20031;-69
2020/12/27 10:17:25;;;;;;;8.88;5.82;;;;;;;8.15;95.76;100629.94;5071585;28;20024;-68
2020/12/27 10:19:50;;;;;;;8.65;6.82;;;;;;;8.09;96.16;100617.66;5071741;28;20095;-68
2020/12/27 10:22:17;;;;;;;11.40;7.20;;;;;;;8.31;96.39;100638.38;5071788;28;20054;-67
2020/12/27 10:24:42;;;;;;;13.27;10.68;;;;;;;8.24;96.16;100617.50;5070915;28;20053;-65
2020/12/27 10:27:08;;;;;;;13.43;11.18;;;;;;;8.42;95.93;100629.50;5068910;28;20040;-67
2020/12/27 10:29:35;;;;;;;15.30;12.07;;;;;;;8.47;95.79;100620.34;5071286;28;20032;-70
2020/12/27 10:32:03;;;;;;;9.02;7.30;;;;;;;8.50;95.86;100609.31;5071115;28;20033;-67
2020/12/27 10:34:29;;;;;;;21.75;17.40;;;;;;;8.56;95.75;100617.31;5070714;28;20035;-69
2020/12/27 10:36:56;;;;;;;9.48;7.03;;;;;;;8.62;96.09;100614.16;5070923;28;20115;-65
2020/12/27 10:39:23;;;;;;;20.83;16.55;;;;;;;8.52;95.84;100603.47;5071495;28;20036;-68
2020/12/27 10:41:49;;;;;;;9.77;7.50;;;;;;;8.60;95.91;100598.66;5070727;28;20085;-69
2020/12/27 10:44:15;;;;;;;12.52;8.38;;;;;;;8.63;95.95;100603.94;5085994;28;20036;-67
2020/12/27 10:46:42;;;;;;;12.50;9.73;;;;;;;8.48;95.80;100570.66;5068367;28;20051;-64
2020/12/27 10:49:07;;;;;;;14.88;10.55;;;;;;;8.68;95.83;100594.75;5070790;28;20098;-71
2020/12/27 10:51:37;;;;;;;13.10;10.18;;;;;;;8.74;95.74;100596.72;5071392;28;20028;-68
2020/12/27 10:54:03;;;;;;;19.40;12.57;;;;;;;8.76;95.78;100594.22;5071355;28;20060;-64
2020/12/27 10:56:29;;;;;;;20.35;15.32;;;;;;;8.76;95.72;100592.53;5071306;28;20029;-68
2020/12/27 10:58:54;;;;;;;15.45;10.85;;;;;;;8.77;95.81;100585.69;5071273;28;20108;-67
2020/12/27 11:01:20;;;;;;;16.23;11.32;;;;;;;8.72;95.77;100560.63;5071227;28;20504;-73
2020/12/27 11:03:46;;;;;;;15.10;11.85;;;;;;;8.87;95.60;100580.16;5070002;28;20086;-66
2020/12/27 11:06:11;;;;;;;13.57;9.82;;;;;;;8.90;95.92;100563.13;5070783;28;20024;-66
2020/12/27 11:08:38;;;;;;;12.50;9.10;;;;;;;8.99;96.12;100564.38;5070792;28;20060;-70
2020/12/27 11:11:04;;;;;;;19.88;9.95;;;;;;;9.05;95.88;100549.19;5071304;28;20111;-68
2020/12/27 11:13:29;;;;;;;23.50;10.18;;;;;;;9.00;95.50;100515.50;5071168;28;20067;-70
2020/12/27 11:15:54;;;;;;;13.80;9.48;;;;;;;9.27;95.35;100558.75;5070954;28;20031;-69
2020/12/27 11:18:20;;;;;;;15.35;11.27;;;;;;;9.22;95.21;100530.22;5071156;28;20039;-66
2020/12/27 11:20:45;;;;;;;29.55;21.25;;;;;;;9.37;94.95;100544.56;5071311;28;20025;-65
2020/12/27 11:23:11;;;;;;;16.52;12.05;;;;;;;9.40;94.91;100547.28;5071017;28;20033;-66
2020/12/27 11:25:36;;;;;;;23.27;18.63;;;;;;;9.42;94.75;100537.94;5071359;28;20418;-71
2020/12/27 11:28:02;;;;;;;17.73;13.23;;;;;;;9.49;94.35;100532.19;5071462;28;20733;-71
2020/12/27 11:30:27;;;;;;;19.08;13.05;;;;;;;9.50;94.43;100535.66;5070849;28;20402;-68